Chevery, Canada
Current Conditions -  °F | °C
As of 10:00 PM on Tuesday 21 Oct 2014 (Local Time) from CWDH Reporting Station
Clear Clear  
Wind Chill: 40°   Ceiling: Unl
Heat Index: 44°   Visibility: 9mi
Dew Point: 33°   Wind: 7mph
Humidity: 67%   Direction: 280°W
Pressure: 30.2"   Gusts: NA
Location:  50.47°N, 59.6°W
Report Text: CWDH 220100Z AUTO 28006KT 9SM NSC 06/01 A3020 RMK SLP230 T00650008 70020 WSI/SWOB
Loading
Personal Weather Stations






























Interactive Weather Map
Tropical Storm Tracking
New forecast layout! Learn more

10-Day Weather Forecast

Advertisements
Track Severe Weather on mobile